Hauptseite
METAR-TAF:

METAR-TAF

Flughäfen :

Durham Tees Valley Airport

Durham, England

Breite: 54-31N, Länge: 001-25W, Höhe: 37 m

Beobachtung

Neuester Wetterbericht von vor 3 Stunden und 16 Minuten, um 20:50 UTC
Wind 12 kt aus Süd
Temperatur 9°C
Luftfeuchtigkeit 87%
Luftdruck 1005 hPa
Sichtweite 10 km oder mehr
Leicht bewölkt in der Höhe von 2100 ft

METAR: EGNV 232050Z 18012KT 9999 FEW021 09/07 Q1005

Zeit: 01:06 (00:06 UTC)

Prognose

Neuester Wetterbericht von vor 6 Stunden und 55 Minuten, um 17:11 UTC
Gültige Prognose vom 23 um 18 UTC bis 23 um 21 UTC
Wind 13 kt aus Süd/Südwest
Sichtweite 10 km oder mehr
Leicht bewölkt in der Höhe von 3500 ft

TAF: EGNV 231711Z 2318/2321 20013KT 9999 FEW035

Wetterbeobachtungen und Prognosen von mehr als 4000 Flughäfen (METAR und TAF Bericht).

Die verfügbaren Stationen werden durch gelbe und rote Markierungen auf der Karte dargestellt.

Führen Sie die Maus auf sie, um den Namen der Station zu sehen.

Darauf klicken, um die Beobachtung von Wetterbeobachtungen und Prognosen zu sehen.

Um die Karte zu ändern : klicken Sie auf den grünen Tasten mit einem schwarzen Kreuz Zum Vergrößern, auf den grünen Button mit einem Gedankenstrich zu verkleinern, oder auf die grünen Pfeile für benachbarte Karten.


METAR-TAF: